createdAt,value
2022-11-04T00:00:17.780Z,0.00
2022-11-04T00:01:17.780Z,0.00
2022-11-04T00:02:24.272Z,0.00
2022-11-04T00:03:17.696Z,0.00
2022-11-04T00:04:17.704Z,0.00
2022-11-04T00:05:17.706Z,0.00
2022-11-04T00:06:17.669Z,0.00
2022-11-04T00:07:17.680Z,0.00
2022-11-04T00:08:17.663Z,0.00
2022-11-04T00:09:17.662Z,0.00
2022-11-04T00:10:17.627Z,0.00
2022-11-04T00:11:17.618Z,0.00
2022-11-04T00:12:17.603Z,0.00
2022-11-04T00:13:17.622Z,0.00
2022-11-04T00:14:17.577Z,0.00
2022-11-04T00:15:17.576Z,0.00
2022-11-04T00:16:17.560Z,0.00
2022-11-04T00:17:17.547Z,0.00
2022-11-04T00:18:17.528Z,0.00
2022-11-04T00:19:17.528Z,0.00
2022-11-04T00:20:17.538Z,0.00
2022-11-04T00:21:17.510Z,0.00
2022-11-04T00:22:17.484Z,0.00
2022-11-04T00:23:17.468Z,0.00
2022-11-04T00:24:17.468Z,0.00
2022-11-04T00:25:17.466Z,0.00
2022-11-04T00:26:17.438Z,0.00
2022-11-04T00:27:17.422Z,0.00
2022-11-04T00:28:17.414Z,0.00
2022-11-04T00:29:17.419Z,0.00
2022-11-04T00:30:17.402Z,0.00
2022-11-04T00:31:17.385Z,0.00
2022-11-04T00:32:17.430Z,0.00
2022-11-04T00:33:17.358Z,0.00
2022-11-04T00:34:17.344Z,0.00
2022-11-04T00:35:17.386Z,0.00
2022-11-04T00:36:17.341Z,0.00
2022-11-04T00:37:17.315Z,0.00
2022-11-04T00:38:17.309Z,0.00
2022-11-04T00:39:17.313Z,0.00
2022-11-04T00:40:17.279Z,0.00
2022-11-04T00:41:17.296Z,0.00
2022-11-04T00:42:23.793Z,0.00
2022-11-04T00:43:17.265Z,0.00
2022-11-04T00:44:17.247Z,0.00
2022-11-04T00:45:17.234Z,0.00
2022-11-04T00:46:17.217Z,0.00
2022-11-04T00:47:17.230Z,0.00
2022-11-04T00:48:17.207Z,0.00
2022-11-04T00:49:17.214Z,0.00
2022-11-04T00:50:17.171Z,0.00
2022-11-04T00:51:17.187Z,0.00
2022-11-04T00:52:17.143Z,0.00
2022-11-04T00:53:17.167Z,0.00
2022-11-04T00:54:17.142Z,0.00
2022-11-04T00:55:17.137Z,0.00
2022-11-04T00:56:17.153Z,0.00
2022-11-04T00:57:17.104Z,0.00
2022-11-04T00:58:17.097Z,0.00
2022-11-04T00:59:17.078Z,0.00
2022-11-04T01:00:17.100Z,0.00
2022-11-04T01:01:17.146Z,0.00
2022-11-04T01:02:23.824Z,0.00
2022-11-04T01:03:17.024Z,0.00
2022-11-04T01:04:17.037Z,0.00
2022-11-04T01:05:17.010Z,0.00
2022-11-04T01:06:17.009Z,0.00
2022-11-04T01:07:16.976Z,0.00
2022-11-04T01:08:16.975Z,0.00
2022-11-04T01:09:16.970Z,0.00
2022-11-04T01:10:16.956Z,0.00
2022-11-04T01:11:16.991Z,0.00
2022-11-04T01:12:16.946Z,0.00
2022-11-04T01:13:16.921Z,0.00
2022-11-04T01:14:16.909Z,0.00
2022-11-04T01:15:16.938Z,0.00
2022-11-04T01:16:16.943Z,0.00
2022-11-04T01:17:16.922Z,0.00
2022-11-04T01:18:16.861Z,0.00
2022-11-04T01:19:16.854Z,0.00
2022-11-04T01:20:16.875Z,0.00
2022-11-04T01:21:16.857Z,0.00
2022-11-04T01:22:16.838Z,0.00
2022-11-04T01:23:16.804Z,0.00
2022-11-04T01:24:16.812Z,0.00
2022-11-04T01:25:16.785Z,0.00
2022-11-04T01:26:16.766Z,0.00
2022-11-04T01:27:16.764Z,0.00
2022-11-04T01:28:16.767Z,0.00
2022-11-04T01:29:16.765Z,0.00
2022-11-04T01:30:16.730Z,0.00
2022-11-04T01:31:16.711Z,0.00
2022-11-04T01:32:16.729Z,0.00
2022-11-04T01:33:16.745Z,0.00
2022-11-04T01:34:16.680Z,0.00
2022-11-04T01:35:16.687Z,0.00
2022-11-04T01:36:16.655Z,0.00
2022-11-04T01:37:16.663Z,0.00
2022-11-04T01:38:16.633Z,0.00
2022-11-04T01:39:16.632Z,0.00
2022-11-04T01:40:16.623Z,0.00
2022-11-04T01:41:16.604Z,0.00
2022-11-04T01:42:16.602Z,0.00
2022-11-04T01:43:16.589Z,0.00
2022-11-04T01:44:16.605Z,0.00
2022-11-04T01:45:16.560Z,0.00
2022-11-04T01:46:16.579Z,0.00
2022-11-04T01:47:16.542Z,0.00
2022-11-04T01:48:16.554Z,0.00
2022-11-04T01:49:16.576Z,0.00
2022-11-04T01:50:16.536Z,0.00
2022-11-04T01:51:16.502Z,0.00
2022-11-04T01:52:16.489Z,0.00
2022-11-04T01:53:16.471Z,0.00
2022-11-04T01:54:16.483Z,0.00
2022-11-04T01:55:16.446Z,0.00
2022-11-04T01:56:16.453Z,0.00
2022-11-04T01:57:16.441Z,0.00
2022-11-04T01:58:16.443Z,0.00
2022-11-04T01:59:16.405Z,0.00
2022-11-04T02:00:16.393Z,0.00
2022-11-04T02:01:16.488Z,0.00
2022-11-04T02:02:16.515Z,0.00
2022-11-04T02:03:16.364Z,0.00
2022-11-04T02:04:16.436Z,0.00
2022-11-04T02:05:16.341Z,0.00
2022-11-04T02:06:16.329Z,0.00
2022-11-04T02:07:16.345Z,0.00
2022-11-04T02:08:16.305Z,0.00
2022-11-04T02:09:16.311Z,0.00
2022-11-04T02:10:16.289Z,0.00
2022-11-04T02:11:16.271Z,0.00
2022-11-04T02:12:16.252Z,0.00
2022-11-04T02:13:16.250Z,0.00
2022-11-04T02:14:16.248Z,0.00
2022-11-04T02:15:16.228Z,0.00
2022-11-04T02:16:16.206Z,0.00
2022-11-04T02:17:16.202Z,0.00
2022-11-04T02:18:16.180Z,0.00
2022-11-04T02:19:16.169Z,0.00
2022-11-04T02:20:16.202Z,0.00
2022-11-04T02:21:16.180Z,0.00
2022-11-04T02:22:22.683Z,0.00
2022-11-04T02:23:16.168Z,0.00
2022-11-04T02:24:16.136Z,0.00
2022-11-04T02:25:16.122Z,0.00
2022-11-04T02:26:16.133Z,0.00
2022-11-04T02:27:16.100Z,0.00
2022-11-04T02:28:16.080Z,0.00
2022-11-04T02:29:16.142Z,0.00
2022-11-04T02:30:16.053Z,0.00
2022-11-04T02:31:16.052Z,0.00
2022-11-04T02:32:16.035Z,0.00
2022-11-04T02:33:16.029Z,0.00
2022-11-04T02:34:16.050Z,0.00
2022-11-04T02:35:16.060Z,0.00
2022-11-04T02:36:16.025Z,0.00
2022-11-04T02:37:15.973Z,0.00
2022-11-04T02:38:15.995Z,0.00
2022-11-04T02:39:15.987Z,0.00
2022-11-04T02:40:15.963Z,0.00
2022-11-04T02:41:15.989Z,0.00
2022-11-04T02:42:22.460Z,0.00
2022-11-04T02:43:15.918Z,0.00
2022-11-04T02:44:15.933Z,0.00
2022-11-04T02:45:15.897Z,0.00
2022-11-04T02:46:15.895Z,0.00
2022-11-04T02:47:15.876Z,0.00
2022-11-04T02:48:15.876Z,0.00
2022-11-04T02:49:16.212Z,0.00
2022-11-04T02:50:15.863Z,0.00
2022-11-04T02:51:15.814Z,0.00
2022-11-04T02:52:15.836Z,0.00
2022-11-04T02:53:15.806Z,0.00
2022-11-04T02:54:15.827Z,0.00
2022-11-04T02:55:15.815Z,0.00
2022-11-04T02:56:15.771Z,0.00
2022-11-04T02:57:15.773Z,0.00
2022-11-04T02:58:15.740Z,0.00
2022-11-04T02:59:15.768Z,0.00
2022-11-04T03:00:15.716Z,0.00
2022-11-04T03:01:15.878Z,0.00
2022-11-04T03:02:15.888Z,0.00
2022-11-04T03:03:15.691Z,0.00
2022-11-04T03:04:15.695Z,0.00
2022-11-04T03:05:15.731Z,0.00
2022-11-04T03:06:15.697Z,0.00
2022-11-04T03:07:15.650Z,0.00
2022-11-04T03:08:15.709Z,0.00
2022-11-04T03:09:15.625Z,0.00
2022-11-04T03:10:15.635Z,0.00
2022-11-04T03:11:15.643Z,0.00
2022-11-04T03:12:15.584Z,0.00
2022-11-04T03:13:15.588Z,0.00
2022-11-04T03:14:15.572Z,0.00
2022-11-04T03:15:15.588Z,0.00
2022-11-04T03:16:15.553Z,0.00
2022-11-04T03:17:15.552Z,0.00
2022-11-04T03:18:15.540Z,0.00
2022-11-04T03:19:15.561Z,0.00
2022-11-04T03:20:15.524Z,0.00
2022-11-04T03:21:15.497Z,0.00
2022-11-04T03:22:15.475Z,0.00
2022-11-04T03:23:15.491Z,0.00
2022-11-04T03:24:15.487Z,0.00
2022-11-04T03:25:15.460Z,0.00
2022-11-04T03:26:15.458Z,0.00
2022-11-04T03:27:15.439Z,0.00
2022-11-04T03:28:15.430Z,0.00
2022-11-04T03:29:15.429Z,0.00
2022-11-04T03:30:15.392Z,0.00
2022-11-04T03:31:15.462Z,0.00
2022-11-04T03:32:15.961Z,0.00
2022-11-04T03:33:15.368Z,0.00
2022-11-04T03:34:15.337Z,0.00
2022-11-04T03:35:15.348Z,0.00
2022-11-04T03:36:15.370Z,0.00
2022-11-04T03:37:15.397Z,0.00
2022-11-04T03:38:15.355Z,0.00
2022-11-04T03:39:15.283Z,0.00
2022-11-04T03:40:15.292Z,0.00
2022-11-04T03:41:15.276Z,0.00
2022-11-04T03:42:15.270Z,0.00
2022-11-04T03:43:15.256Z,0.00
2022-11-04T03:44:15.231Z,0.00
2022-11-04T03:45:15.239Z,0.00
2022-11-04T03:46:15.223Z,0.00
2022-11-04T03:47:15.213Z,0.00
2022-11-04T03:48:15.189Z,0.00
2022-11-04T03:49:15.182Z,0.00
2022-11-04T03:50:15.171Z,0.00
2022-11-04T03:51:15.148Z,0.00
2022-11-04T03:52:21.690Z,0.00
2022-11-04T03:53:15.199Z,0.00
2022-11-04T03:54:15.111Z,0.00
2022-11-04T03:55:15.109Z,0.00
2022-11-04T03:56:16.115Z,0.00
2022-11-04T03:57:15.114Z,0.00
2022-11-04T03:58:15.069Z,0.00
2022-11-04T03:59:15.080Z,0.00
2022-11-04T04:00:15.082Z,0.00
2022-11-04T04:01:15.134Z,0.00
2022-11-04T04:02:15.104Z,0.00
2022-11-04T04:03:15.019Z,0.00
2022-11-04T04:04:15.466Z,0.00
2022-11-04T04:05:17.769Z,0.00
2022-11-04T04:06:14.995Z,0.00
2022-11-04T04:07:14.981Z,0.00
2022-11-04T04:08:15.012Z,0.00
2022-11-04T04:09:14.951Z,0.00
2022-11-04T04:10:14.935Z,0.00
2022-11-04T04:11:14.928Z,0.00
2022-11-04T04:12:21.472Z,0.00
2022-11-04T04:13:14.978Z,0.00
2022-11-04T04:14:14.896Z,0.00
2022-11-04T04:15:14.886Z,0.00
2022-11-04T04:16:14.870Z,0.00
2022-11-04T04:17:14.889Z,0.00
2022-11-04T04:18:14.857Z,0.00
2022-11-04T04:19:14.834Z,0.00
2022-11-04T04:20:14.865Z,0.00
2022-11-04T04:21:14.813Z,0.00
2022-11-04T04:22:14.810Z,0.00
2022-11-04T04:23:14.806Z,0.00
2022-11-04T04:24:14.787Z,0.00
2022-11-04T04:25:14.775Z,0.00
2022-11-04T04:26:14.767Z,0.00
2022-11-04T04:27:14.744Z,0.00
2022-11-04T04:28:14.734Z,0.00
2022-11-04T04:29:14.730Z,0.00
2022-11-04T04:30:14.727Z,0.00
2022-11-04T04:31:14.759Z,0.00
2022-11-04T04:32:14.705Z,0.00
2022-11-04T04:33:14.692Z,0.00
2022-11-04T04:34:14.694Z,0.00
2022-11-04T04:35:14.668Z,0.00
2022-11-04T04:36:14.686Z,0.00
2022-11-04T04:37:14.645Z,0.00
2022-11-04T04:38:14.650Z,0.00
2022-11-04T04:39:14.671Z,0.00
2022-11-04T04:40:14.657Z,0.00
2022-11-04T04:41:14.625Z,0.00
2022-11-04T04:42:14.578Z,0.00
2022-11-04T04:43:14.593Z,0.00
2022-11-04T04:44:14.577Z,0.00
2022-11-04T04:45:14.555Z,0.00
2022-11-04T04:46:14.541Z,0.00
2022-11-04T04:47:14.546Z,0.00
2022-11-04T04:48:14.523Z,0.00
2022-11-04T04:49:14.532Z,0.00
2022-11-04T04:50:14.499Z,0.00
2022-11-04T04:51:14.521Z,0.00
2022-11-04T04:52:14.502Z,0.00
2022-11-04T04:53:14.481Z,0.00
2022-11-04T04:54:14.452Z,0.00
2022-11-04T04:55:14.432Z,0.00
2022-11-04T04:56:14.433Z,0.00
2022-11-04T04:57:14.423Z,0.00
2022-11-04T04:58:14.645Z,0.00
2022-11-04T04:59:14.404Z,0.00
2022-11-04T05:00:14.393Z,0.00
2022-11-04T05:01:14.472Z,0.00
2022-11-04T05:02:14.606Z,0.00
2022-11-04T05:03:14.362Z,0.00
2022-11-04T05:04:14.336Z,0.00
2022-11-04T05:06:14.319Z,0.00
2022-11-04T05:07:14.338Z,0.00
2022-11-04T05:08:14.306Z,0.00
2022-11-04T05:09:14.297Z,0.00
2022-11-04T05:10:14.395Z,0.00
2022-11-04T05:11:14.280Z,0.00
2022-11-04T05:12:14.257Z,0.00
2022-11-04T05:13:14.245Z,0.00
2022-11-04T05:14:14.242Z,0.00
2022-11-04T05:15:14.249Z,0.00
2022-11-04T05:16:14.217Z,0.00
2022-11-04T05:17:14.190Z,0.00
2022-11-04T05:18:14.182Z,0.00
2022-11-04T05:19:14.189Z,0.00
2022-11-04T05:20:14.155Z,0.00
2022-11-04T05:21:14.138Z,0.00
2022-11-04T05:22:14.252Z,0.00
2022-11-04T05:23:14.190Z,0.00
2022-11-04T05:24:15.320Z,0.00
2022-11-04T05:25:14.102Z,0.00
2022-11-04T05:26:14.088Z,0.00
2022-11-04T05:27:14.076Z,0.00
2022-11-04T05:28:14.086Z,0.00
2022-11-04T05:30:14.096Z,0.00
2022-11-04T05:31:14.045Z,0.00
2022-11-04T05:32:14.040Z,0.00
2022-11-04T05:33:14.045Z,0.00
2022-11-04T05:34:14.003Z,0.00
2022-11-04T05:35:14.007Z,0.00
2022-11-04T05:36:14.002Z,0.00
2022-11-04T05:37:13.965Z,0.00
2022-11-04T05:38:13.954Z,0.00
2022-11-04T05:39:13.975Z,0.00
2022-11-04T05:40:13.966Z,0.00
2022-11-04T05:41:14.008Z,0.00
2022-11-04T05:42:20.460Z,0.00
2022-11-04T05:43:13.911Z,0.00
2022-11-04T05:44:13.979Z,0.00
2022-11-04T05:45:13.908Z,0.00
2022-11-04T05:46:13.873Z,0.00
2022-11-04T05:47:13.850Z,0.00
2022-11-04T05:48:13.839Z,0.00
2022-11-04T05:49:13.873Z,0.00
2022-11-04T05:50:13.864Z,0.00
2022-11-04T05:51:13.817Z,0.00
2022-11-04T05:52:13.796Z,0.00
2022-11-04T05:53:13.868Z,0.00
2022-11-04T05:54:13.817Z,0.00
2022-11-04T05:55:13.777Z,0.00
2022-11-04T05:56:13.761Z,0.00
2022-11-04T05:57:13.749Z,0.00
2022-11-04T05:58:13.745Z,0.00
2022-11-04T05:59:13.718Z,0.00
2022-11-04T06:00:13.763Z,0.00
2022-11-04T06:01:13.755Z,0.00
2022-11-04T06:02:13.865Z,0.00
2022-11-04T06:03:16.290Z,0.00
2022-11-04T06:04:13.672Z,0.00
2022-11-04T06:05:13.694Z,0.00
2022-11-04T06:06:13.650Z,0.00
2022-11-04T06:07:13.669Z,0.00
2022-11-04T06:08:13.644Z,0.00
2022-11-04T06:09:13.635Z,0.00
2022-11-04T06:10:14.405Z,0.00
2022-11-04T06:11:13.620Z,0.00
2022-11-04T06:12:13.631Z,0.00
2022-11-04T06:13:13.599Z,0.00
2022-11-04T06:14:18.383Z,0.00
2022-11-04T06:15:13.571Z,0.00
2022-11-04T06:16:13.545Z,0.00
2022-11-04T06:17:13.563Z,0.00
2022-11-04T06:18:13.526Z,0.00
2022-11-04T06:19:16.235Z,0.00
2022-11-04T06:20:13.503Z,0.00
2022-11-04T06:21:13.510Z,0.00
2022-11-04T06:22:13.497Z,0.00
2022-11-04T06:23:13.470Z,0.00
2022-11-04T06:24:13.461Z,0.00
2022-11-04T06:25:13.461Z,0.00
2022-11-04T06:26:13.449Z,0.00
2022-11-04T06:27:13.424Z,0.00
2022-11-04T06:28:13.419Z,0.00
2022-11-04T06:29:13.630Z,0.00
2022-11-04T06:30:13.598Z,0.00
2022-11-04T06:31:13.385Z,0.00
2022-11-04T06:32:14.218Z,0.00
2022-11-04T06:33:13.358Z,0.00
2022-11-04T06:34:13.347Z,0.00
2022-11-04T06:35:13.463Z,0.00
2022-11-04T06:36:13.350Z,0.00
2022-11-04T06:37:13.326Z,0.00
2022-11-04T06:38:13.311Z,0.00
2022-11-04T06:39:13.303Z,0.00
2022-11-04T06:40:13.272Z,0.00
2022-11-04T06:41:13.277Z,0.00
2022-11-04T06:42:19.910Z,0.00
2022-11-04T06:43:13.269Z,0.00
2022-11-04T06:44:14.165Z,0.00
2022-11-04T06:45:14.160Z,0.00
2022-11-04T06:46:13.257Z,0.00
2022-11-04T06:47:13.389Z,0.00
2022-11-04T06:48:13.206Z,0.00
2022-11-04T06:49:13.173Z,0.00
2022-11-04T06:50:13.210Z,0.00
2022-11-04T06:51:13.166Z,0.00
2022-11-04T06:52:13.185Z,0.00
2022-11-04T06:53:20.741Z,0.00
2022-11-04T06:54:13.772Z,0.00
2022-11-04T06:55:13.118Z,0.00
2022-11-04T06:56:13.156Z,0.00
2022-11-04T06:57:13.140Z,0.00
2022-11-04T06:58:13.696Z,0.00
2022-11-04T06:59:14.456Z,0.00
2022-11-04T07:00:13.690Z,0.00
2022-11-04T07:01:18.580Z,0.00
2022-11-04T07:02:13.326Z,0.00
2022-11-04T07:03:13.079Z,0.00
2022-11-04T07:04:13.012Z,0.00
2022-11-04T07:05:13.013Z,0.00
2022-11-04T07:06:12.980Z,0.00
2022-11-04T07:07:13.021Z,0.00
2022-11-04T07:08:12.990Z,0.00
2022-11-04T07:09:12.960Z,0.00
2022-11-04T07:10:13.019Z,0.00
2022-11-04T07:11:13.002Z,0.00
2022-11-04T07:12:13.456Z,0.00
2022-11-04T07:13:12.954Z,0.00
2022-11-04T07:14:12.887Z,0.00
2022-11-04T07:15:12.950Z,0.00
2022-11-04T07:16:12.913Z,0.00
2022-11-04T07:17:12.880Z,0.00
2022-11-04T07:18:16.528Z,0.00
2022-11-04T07:19:12.856Z,0.00
2022-11-04T07:20:12.863Z,0.00
2022-11-04T07:21:12.851Z,0.00
2022-11-04T07:22:12.825Z,0.00
2022-11-04T07:23:12.851Z,0.00
2022-11-04T07:24:12.832Z,0.00
2022-11-04T07:25:12.771Z,0.00
2022-11-04T07:26:12.771Z,0.00
2022-11-04T07:27:12.769Z,0.00
2022-11-04T07:28:13.037Z,0.00
2022-11-04T07:29:12.954Z,0.00
2022-11-04T07:30:12.721Z,0.00
2022-11-04T07:31:13.303Z,0.00
2022-11-04T07:32:24.744Z,0.00
2022-11-04T07:33:34.454Z,0.00
2022-11-04T07:34:12.736Z,0.00
2022-11-04T07:35:13.309Z,0.00
2022-11-04T07:36:13.297Z,0.00
2022-11-04T07:37:16.775Z,0.00
2022-11-04T07:38:24.285Z,0.00
2022-11-04T07:39:26.421Z,0.00
2022-11-04T07:40:14.319Z,0.00
2022-11-04T07:41:14.323Z,0.00
2022-11-04T07:42:12.634Z,0.00
2022-11-04T07:43:12.625Z,0.00
2022-11-04T07:44:12.729Z,0.00
2022-11-04T07:45:14.083Z,0.00
2022-11-04T07:46:12.596Z,0.00
2022-11-04T07:47:12.534Z,0.00
2022-11-04T07:48:11.804Z,0.00
2022-11-04T07:49:13.756Z,0.00
2022-11-04T07:50:12.685Z,0.00
2022-11-04T07:51:12.523Z,0.00
2022-11-04T07:52:13.637Z,0.00
2022-11-04T07:53:13.528Z,0.00
2022-11-04T07:54:13.004Z,0.00
2022-11-04T07:55:13.313Z,0.00
2022-11-04T07:56:12.655Z,0.00
2022-11-04T07:57:12.421Z,0.00
2022-11-04T07:58:12.441Z,0.00
2022-11-04T07:59:13.298Z,0.00
2022-11-04T08:00:13.276Z,0.00
2022-11-04T08:01:12.363Z,0.00
2022-11-04T08:02:12.761Z,0.00
2022-11-04T08:03:12.877Z,0.00
2022-11-04T08:04:14.311Z,0.00
2022-11-04T08:05:12.335Z,0.00
2022-11-04T08:06:12.622Z,0.00
2022-11-04T08:07:12.294Z,0.00
2022-11-04T08:08:12.313Z,0.00
2022-11-04T08:09:12.370Z,0.00
2022-11-04T08:10:12.309Z,0.00
2022-11-04T08:11:17.058Z,0.00
2022-11-04T08:12:12.263Z,0.00
2022-11-04T08:13:12.312Z,0.00
2022-11-04T08:14:12.250Z,0.00
2022-11-04T08:15:12.255Z,0.00
2022-11-04T08:16:12.221Z,0.00
2022-11-04T08:17:12.217Z,0.00
2022-11-04T08:18:12.173Z,0.00
2022-11-04T08:19:12.168Z,0.00
2022-11-04T08:20:12.186Z,0.00
2022-11-04T08:21:12.154Z,0.00
2022-11-04T08:22:12.342Z,0.00
2022-11-04T08:23:12.462Z,0.00
2022-11-04T08:24:12.317Z,0.00
2022-11-04T08:25:12.105Z,0.00
2022-11-04T08:26:12.096Z,0.00
2022-11-04T08:27:12.099Z,0.00
2022-11-04T08:28:12.789Z,0.00
2022-11-04T08:29:12.062Z,0.00
2022-11-04T08:30:12.048Z,0.00
2022-11-04T08:31:12.042Z,0.00
2022-11-04T08:32:12.040Z,0.00
2022-11-04T08:33:12.130Z,0.00
2022-11-04T08:34:12.011Z,0.00
2022-11-04T08:35:12.014Z,0.00
2022-11-04T08:36:12.197Z,0.00
2022-11-04T08:37:12.026Z,0.00
2022-11-04T08:38:12.208Z,0.00
2022-11-04T08:39:11.961Z,0.00
2022-11-04T08:40:11.938Z,0.00
2022-11-04T08:41:11.935Z,0.00
2022-11-04T08:42:11.904Z,0.00
2022-11-04T08:43:12.221Z,0.00
2022-11-04T08:44:11.909Z,0.00
2022-11-04T08:45:11.872Z,0.00
2022-11-04T08:46:11.959Z,0.00
2022-11-04T08:47:11.864Z,0.00
2022-11-04T08:48:12.482Z,0.00
2022-11-04T08:49:14.939Z,0.00
2022-11-04T08:50:15.824Z,0.00
2022-11-04T08:51:11.826Z,0.00
2022-11-04T08:52:16.425Z,0.00
2022-11-04T08:53:12.209Z,0.00
2022-11-04T08:54:11.802Z,0.00
2022-11-04T08:55:11.788Z,0.00
2022-11-04T08:56:11.774Z,0.00
2022-11-04T08:57:11.761Z,0.00
2022-11-04T08:58:13.270Z,0.00
2022-11-04T08:59:11.729Z,0.00
2022-11-04T09:00:12.891Z,0.00
2022-11-04T09:01:15.602Z,0.00
2022-11-04T09:02:16.116Z,0.00
2022-11-04T09:03:25.263Z,0.00
2022-11-04T09:04:11.791Z,0.00
2022-11-04T09:05:12.466Z,0.00
2022-11-04T09:06:11.638Z,0.00
2022-11-04T09:07:11.763Z,0.00
2022-11-04T09:08:11.677Z,0.00
2022-11-04T09:09:11.613Z,0.00
2022-11-04T09:10:27.409Z,0.00
2022-11-04T09:11:11.590Z,0.00
2022-11-04T09:12:11.582Z,0.00
2022-11-04T09:13:11.855Z,0.00
2022-11-04T09:14:12.449Z,0.00
2022-11-04T09:15:12.270Z,0.00
2022-11-04T09:16:11.564Z,0.00
2022-11-04T09:17:11.587Z,0.00
2022-11-04T09:18:11.748Z,0.00
2022-11-04T09:19:11.530Z,0.00
2022-11-04T09:20:11.508Z,0.00
2022-11-04T09:21:11.477Z,0.00
2022-11-04T09:22:14.819Z,0.00
2022-11-04T09:23:11.877Z,0.00
2022-11-04T09:24:11.456Z,0.00
2022-11-04T09:25:11.473Z,0.00
2022-11-04T09:26:12.840Z,0.00
2022-11-04T09:27:11.586Z,0.00
2022-11-04T09:28:11.473Z,0.00
2022-11-04T09:29:11.652Z,0.00
2022-11-04T09:30:12.344Z,0.00
2022-11-04T09:31:12.347Z,0.00
2022-11-04T09:32:11.869Z,0.00
2022-11-04T09:33:14.832Z,0.00
2022-11-04T09:34:11.360Z,0.00
2022-11-04T09:35:14.946Z,0.00
2022-11-04T09:36:54.948Z,0.00
2022-11-04T09:37:11.310Z,0.00
2022-11-04T09:38:11.723Z,0.00
2022-11-04T09:39:11.260Z,0.00
2022-11-04T09:40:11.303Z,0.00
2022-11-04T09:41:12.976Z,0.00
2022-11-04T09:42:11.267Z,0.00
2022-11-04T09:43:11.621Z,0.00
2022-11-04T09:44:17.455Z,0.00
2022-11-04T09:45:27.573Z,0.00
2022-11-04T09:46:11.805Z,0.00
2022-11-04T09:47:11.435Z,0.00
2022-11-04T09:48:11.256Z,0.00
2022-11-04T09:49:11.867Z,0.00
2022-11-04T09:50:12.737Z,0.00
2022-11-04T09:51:26.137Z,0.00
2022-11-04T09:52:11.181Z,0.00
2022-11-04T09:53:11.382Z,0.00
2022-11-04T09:54:11.103Z,0.00
2022-11-04T09:55:11.109Z,0.00
2022-11-04T09:56:11.087Z,0.00
2022-11-04T09:57:11.085Z,0.00
2022-11-04T09:58:18.630Z,0.00
2022-11-04T09:59:11.819Z,0.00
2022-11-04T10:00:11.037Z,0.00
2022-11-04T10:01:11.236Z,0.00
2022-11-04T10:02:11.039Z,0.00
2022-11-04T10:03:11.337Z,0.00
2022-11-04T10:04:11.004Z,0.00
2022-11-04T10:05:11.035Z,0.00
2022-11-04T10:06:11.825Z,0.00
2022-11-04T10:07:12.732Z,0.00
2022-11-04T10:08:10.939Z,0.00
2022-11-04T10:09:11.189Z,0.00
2022-11-04T10:10:12.101Z,0.00
2022-11-04T10:11:10.912Z,0.00
2022-11-04T10:12:11.497Z,0.00
2022-11-04T10:13:11.299Z,0.00
2022-11-04T10:14:10.890Z,0.00
2022-11-04T10:15:10.894Z,0.00
2022-11-04T10:16:10.857Z,0.00
2022-11-04T10:17:11.081Z,0.00
2022-11-04T10:18:15.007Z,0.00
2022-11-04T10:19:10.845Z,0.00
2022-11-04T10:20:10.874Z,0.00
2022-11-04T10:21:10.847Z,0.00
2022-11-04T10:22:10.812Z,0.00
2022-11-04T10:23:11.130Z,0.00
2022-11-04T10:24:10.792Z,0.00
2022-11-04T10:25:20.995Z,0.00
2022-11-04T10:26:10.795Z,0.00
2022-11-04T10:27:10.736Z,0.00
2022-11-04T10:28:10.722Z,0.00
2022-11-04T10:29:10.759Z,0.00
2022-11-04T10:30:10.689Z,0.00
2022-11-04T10:31:10.744Z,0.00
2022-11-04T10:32:10.706Z,0.00
2022-11-04T10:33:11.078Z,0.00
2022-11-04T10:34:11.334Z,0.00
2022-11-04T10:35:10.654Z,0.00
2022-11-04T10:36:10.653Z,0.00
2022-11-04T10:37:10.617Z,0.00
2022-11-04T10:38:10.608Z,0.00
2022-11-04T10:39:10.605Z,0.00
2022-11-04T10:40:10.607Z,0.00
2022-11-04T10:41:10.612Z,0.00
2022-11-04T10:42:10.551Z,0.00
2022-11-04T10:43:10.842Z,0.00
2022-11-04T10:44:10.786Z,0.00
2022-11-04T10:45:10.534Z,0.00
2022-11-04T10:46:10.568Z,0.00
2022-11-04T10:47:10.515Z,0.00
2022-11-04T10:48:10.564Z,0.00
2022-11-04T10:49:11.373Z,0.00
2022-11-04T10:51:10.701Z,0.00
2022-11-04T10:53:23.892Z,258.75
2022-11-04T10:54:23.154Z,241.88
2022-11-04T10:55:23.141Z,236.25
2022-11-04T10:56:25.201Z,236.25
2022-11-04T10:57:23.112Z,253.12
2022-11-04T10:58:23.105Z,275.62
2022-11-04T10:59:23.109Z,298.12
2022-11-04T11:00:23.142Z,315.00
2022-11-04T11:01:23.378Z,343.12
2022-11-04T11:02:23.320Z,371.25
2022-11-04T11:03:23.031Z,388.12
2022-11-04T11:04:23.636Z,405.00
2022-11-04T11:05:22.999Z,416.25
2022-11-04T11:06:23.212Z,416.25
2022-11-04T11:07:23.002Z,421.88
2022-11-04T11:08:22.976Z,421.88
2022-11-04T11:09:22.945Z,421.88
2022-11-04T11:10:23.166Z,427.50
2022-11-04T11:11:22.942Z,427.50
2022-11-04T11:12:49.539Z,427.50
2022-11-04T11:13:22.919Z,421.88
2022-11-04T11:14:22.889Z,427.50
2022-11-04T11:15:22.889Z,444.38
2022-11-04T11:16:22.927Z,455.62
2022-11-04T11:17:22.974Z,472.50
2022-11-04T11:18:22.856Z,483.75
2022-11-04T11:19:22.917Z,489.38
2022-11-04T11:20:22.831Z,495.00
2022-11-04T11:21:22.884Z,495.00
2022-11-04T11:22:22.812Z,495.00
2022-11-04T11:23:22.787Z,500.62
2022-11-04T11:24:22.776Z,495.00
2022-11-04T11:25:22.760Z,483.75
2022-11-04T11:26:22.761Z,472.50
2022-11-04T11:27:22.780Z,455.62
2022-11-04T11:28:22.769Z,444.38
2022-11-04T11:29:22.734Z,455.62
2022-11-04T11:30:22.716Z,455.62
2022-11-04T11:31:22.717Z,450.00
2022-11-04T11:32:22.694Z,562.50
2022-11-04T11:33:22.700Z,517.50
2022-11-04T11:34:22.756Z,545.62
2022-11-04T11:35:22.665Z,652.50
2022-11-04T11:36:23.667Z,680.62
2022-11-04T11:37:22.646Z,860.62
2022-11-04T11:38:22.618Z,787.50
2022-11-04T11:39:22.652Z,590.62
2022-11-04T11:40:22.618Z,658.12
2022-11-04T11:41:25.186Z,596.25
2022-11-04T11:42:23.343Z,613.12
2022-11-04T11:43:22.575Z,556.88
2022-11-04T11:44:22.554Z,506.25
2022-11-04T11:45:22.544Z,534.38
2022-11-04T11:46:23.159Z,489.38
2022-11-04T11:47:22.544Z,450.00
2022-11-04T11:48:22.540Z,483.75
2022-11-04T11:49:24.032Z,511.88
2022-11-04T11:50:22.500Z,601.88
2022-11-04T11:51:24.281Z,731.25
2022-11-04T11:52:22.476Z,652.50
2022-11-04T11:53:22.522Z,663.75
2022-11-04T11:54:22.446Z,658.12
2022-11-04T11:55:22.901Z,663.75
2022-11-04T11:56:23.161Z,646.88
2022-11-04T11:57:25.764Z,534.38
2022-11-04T12:00:38.003Z,703.12
2022-11-04T12:01:25.498Z,708.75
2022-11-04T12:02:22.522Z,725.62
2022-11-04T12:03:23.693Z,736.88
2022-11-04T12:06:22.387Z,781.88
2022-11-04T12:09:23.535Z,686.25
2022-11-04T12:10:44.613Z,697.50
2022-11-04T12:11:22.299Z,703.12
2022-11-04T12:12:22.265Z,708.75
2022-11-04T12:13:25.114Z,720.00
2022-11-04T12:14:22.241Z,731.25
2022-11-04T12:15:22.229Z,731.25
2022-11-04T12:16:22.210Z,736.88
2022-11-04T12:17:22.196Z,675.00
2022-11-04T12:18:23.179Z,776.25
2022-11-04T12:19:22.213Z,781.88
2022-11-04T12:20:23.233Z,793.12
2022-11-04T12:21:22.159Z,810.00
2022-11-04T12:22:22.150Z,815.62
2022-11-04T12:23:22.134Z,815.62
2022-11-04T12:24:23.403Z,472.50
2022-11-04T12:25:22.117Z,478.12
2022-11-04T12:26:22.090Z,466.88
2022-11-04T12:27:22.121Z,455.62
2022-11-04T12:28:22.109Z,405.00
2022-11-04T12:29:22.062Z,354.38
2022-11-04T12:30:28.229Z,298.12
2022-11-04T12:31:22.044Z,253.12
2022-11-04T12:32:22.660Z,225.00
2022-11-04T12:33:22.025Z,196.88
2022-11-04T12:34:22.050Z,180.00
2022-11-04T12:35:22.004Z,174.38
2022-11-04T12:36:22.014Z,185.62
2022-11-04T12:37:21.980Z,208.12
2022-11-04T12:38:21.967Z,219.38
2022-11-04T12:39:21.964Z,225.00
2022-11-04T12:40:21.948Z,225.00
2022-11-04T12:43:32.645Z,0.00
2022-11-04T12:44:33.612Z,0.00
2022-11-04T12:45:33.610Z,0.00
2022-11-04T12:46:33.607Z,0.00
2022-11-04T12:47:33.657Z,0.00
2022-11-04T12:48:33.601Z,0.00
2022-11-04T12:49:33.575Z,0.00
2022-11-04T12:50:33.612Z,0.00
2022-11-04T12:51:33.566Z,0.00
2022-11-04T12:52:34.099Z,0.00
2022-11-04T12:53:33.559Z,0.00
2022-11-04T12:54:33.537Z,0.00
2022-11-04T12:55:33.735Z,0.00
2022-11-04T12:56:33.497Z,0.00
2022-11-04T12:57:33.495Z,0.00
2022-11-04T12:58:33.486Z,0.00
2022-11-04T12:59:33.467Z,0.00
2022-11-04T13:00:33.528Z,0.00
2022-11-04T13:01:34.353Z,0.00
2022-11-04T13:02:40.049Z,0.00
2022-11-04T13:03:33.415Z,0.00
2022-11-04T13:04:33.409Z,0.00
2022-11-04T13:05:33.428Z,0.00
2022-11-04T13:06:33.398Z,0.00
2022-11-04T13:07:33.371Z,0.00
2022-11-04T13:08:33.370Z,0.00
2022-11-04T13:09:33.340Z,0.00
2022-11-04T13:10:33.340Z,0.00
2022-11-04T13:11:33.336Z,0.00
2022-11-04T13:12:33.322Z,0.00
2022-11-04T13:13:33.319Z,0.00
2022-11-04T13:14:33.555Z,0.00
2022-11-04T13:15:33.282Z,0.00
2022-11-04T13:16:33.314Z,0.00
2022-11-04T13:17:33.266Z,0.00
2022-11-04T13:18:33.264Z,0.00
2022-11-04T13:19:33.244Z,0.00
2022-11-04T13:20:33.259Z,0.00
2022-11-04T13:21:33.295Z,0.00
2022-11-04T13:22:33.228Z,0.00
2022-11-04T13:23:33.199Z,0.00